createdAt,value
2022-08-20T00:01:22.612Z,29.85
2022-08-20T00:03:53.340Z,29.83
2022-08-20T00:06:26.345Z,29.80
2022-08-20T00:08:55.347Z,29.75
2022-08-20T00:11:29.092Z,29.74
2022-08-20T00:14:02.862Z,29.69
2022-08-20T00:16:36.611Z,29.67
2022-08-20T00:19:08.809Z,29.63
2022-08-20T00:21:41.589Z,29.60
2022-08-20T00:24:10.843Z,29.57
2022-08-20T00:26:51.712Z,29.56
2022-08-20T00:29:22.354Z,29.57
2022-08-20T00:31:51.625Z,29.58
2022-08-20T00:34:20.479Z,29.57
2022-08-20T00:36:50.548Z,29.57
2022-08-20T00:39:19.221Z,29.55
2022-08-20T00:41:47.934Z,29.54
2022-08-20T00:44:19.927Z,29.54
2022-08-20T00:46:49.314Z,29.51
2022-08-20T00:49:24.753Z,29.49
2022-08-20T00:52:01.108Z,29.42
2022-08-20T00:54:36.717Z,29.33
2022-08-20T00:57:10.733Z,29.25
2022-08-20T00:59:41.795Z,29.19
2022-08-20T01:02:16.005Z,29.15
2022-08-20T01:04:48.112Z,29.12
2022-08-20T01:07:20.509Z,29.12
2022-08-20T01:09:59.088Z,29.12
2022-08-20T01:12:29.879Z,29.13
2022-08-20T01:15:01.956Z,29.14
2022-08-20T01:17:36.222Z,29.15
2022-08-20T01:20:12.506Z,29.17
2022-08-20T01:23:05.276Z,29.18
2022-08-20T01:25:44.247Z,29.15
2022-08-20T01:28:14.958Z,29.17
2022-08-20T01:30:44.040Z,29.18
2022-08-20T01:33:13.196Z,29.19
2022-08-20T01:35:44.566Z,29.19
2022-08-20T01:38:14.684Z,29.19
2022-08-20T01:41:28.692Z,29.19
2022-08-20T01:43:58.773Z,29.19
2022-08-20T01:46:29.737Z,29.20
2022-08-20T01:49:00.377Z,29.21
2022-08-20T01:51:32.008Z,29.21
2022-08-20T01:54:00.826Z,29.20
2022-08-20T01:56:32.917Z,29.21
2022-08-20T01:59:05.347Z,29.20
2022-08-20T02:01:45.924Z,29.19
2022-08-20T02:04:16.897Z,29.19
2022-08-20T02:06:56.117Z,29.19
2022-08-20T02:09:26.928Z,29.18
2022-08-20T02:11:57.606Z,29.18
2022-08-20T02:14:27.998Z,29.19
2022-08-20T02:16:58.509Z,29.19
2022-08-20T02:19:33.943Z,29.18
2022-08-20T02:22:12.758Z,29.17
2022-08-20T02:24:41.276Z,29.17
2022-08-20T02:27:11.783Z,29.17
2022-08-20T02:29:40.721Z,29.16
2022-08-20T02:32:32.161Z,29.17
2022-08-20T02:35:03.225Z,29.17
2022-08-20T02:37:32.260Z,29.15
2022-08-20T02:40:01.604Z,29.17
2022-08-20T02:42:31.565Z,29.17
2022-08-20T02:45:00.125Z,29.16
2022-08-20T02:47:29.381Z,29.14
2022-08-20T02:49:59.679Z,29.12
2022-08-20T02:52:28.758Z,29.12
2022-08-20T02:54:57.177Z,29.12
2022-08-20T02:57:25.876Z,29.10
2022-08-20T02:59:56.598Z,29.11
2022-08-20T03:02:25.114Z,29.10
2022-08-20T03:04:53.708Z,29.11
2022-08-20T03:07:22.649Z,29.12
2022-08-20T03:09:51.379Z,29.12
2022-08-20T03:12:19.910Z,29.13
2022-08-20T03:14:48.691Z,29.12
2022-08-20T03:17:18.668Z,29.12
2022-08-20T03:19:47.180Z,29.11
2022-08-20T03:22:16.012Z,29.08
2022-08-20T03:24:45.417Z,29.10
2022-08-20T03:27:14.675Z,29.10
2022-08-20T03:29:43.247Z,29.07
2022-08-20T03:32:11.793Z,29.07
2022-08-20T03:34:41.863Z,29.07
2022-08-20T03:37:11.658Z,29.06
2022-08-20T03:39:40.549Z,29.04
2022-08-20T03:42:09.400Z,29.03
2022-08-20T03:44:38.021Z,29.03
2022-08-20T03:47:09.418Z,29.02
2022-08-20T03:49:37.899Z,29.00
2022-08-20T03:52:08.136Z,29.00
2022-08-20T03:54:36.678Z,28.99
2022-08-20T03:57:12.915Z,28.98
2022-08-20T03:59:42.261Z,28.95
2022-08-20T04:02:11.196Z,28.94
2022-08-20T04:04:40.309Z,28.91
2022-08-20T04:07:25.668Z,28.92
2022-08-20T04:09:55.537Z,28.90
2022-08-20T04:12:26.498Z,28.90
2022-08-20T04:14:56.145Z,28.88
2022-08-20T04:17:25.411Z,28.87
2022-08-20T04:19:53.953Z,28.86
2022-08-20T04:22:23.879Z,28.85
2022-08-20T04:24:52.458Z,28.83
2022-08-20T04:27:21.253Z,28.82
2022-08-20T04:29:50.478Z,28.81
2022-08-20T04:32:19.108Z,28.80
2022-08-20T04:34:47.642Z,28.79
2022-08-20T04:37:21.073Z,28.79
2022-08-20T04:40:05.368Z,28.77
2022-08-20T04:42:33.969Z,28.76
2022-08-20T04:45:02.901Z,28.75
2022-08-20T04:47:34.734Z,28.75
2022-08-20T04:50:03.972Z,28.73
2022-08-20T04:52:33.122Z,28.74
2022-08-20T04:55:03.402Z,28.72
2022-08-20T04:57:36.691Z,28.71
2022-08-20T05:00:09.345Z,28.72
2022-08-20T05:02:38.286Z,28.70
2022-08-20T05:05:08.917Z,28.69
2022-08-20T05:07:42.033Z,28.69
2022-08-20T05:10:15.196Z,28.68
2022-08-20T05:12:56.456Z,28.68
2022-08-20T05:15:26.396Z,28.68
2022-08-20T05:18:00.625Z,28.68
2022-08-20T05:20:32.644Z,28.67
2022-08-20T05:23:02.128Z,28.65
2022-08-20T05:25:32.784Z,28.65
2022-08-20T05:28:10.146Z,28.63
2022-08-20T05:30:40.545Z,28.60
2022-08-20T05:33:11.442Z,28.63
2022-08-20T05:35:42.270Z,28.62
2022-08-20T05:38:14.083Z,28.61
2022-08-20T05:40:44.277Z,28.62
2022-08-20T05:43:13.444Z,28.61
2022-08-20T05:45:44.166Z,28.62
2022-08-20T05:48:16.814Z,28.63
2022-08-20T05:50:50.041Z,28.60
2022-08-20T05:53:20.086Z,28.59
2022-08-20T05:55:50.482Z,28.59
2022-08-20T05:58:23.091Z,28.58
2022-08-20T06:00:53.956Z,28.56
2022-08-20T06:03:40.703Z,28.56
2022-08-20T06:06:18.184Z,28.56
2022-08-20T06:08:58.547Z,28.55
2022-08-20T06:11:28.525Z,28.56
2022-08-20T06:13:57.072Z,28.55
2022-08-20T06:16:29.085Z,28.56
2022-08-20T06:18:58.472Z,28.54
2022-08-20T06:21:27.211Z,28.53
2022-08-20T06:23:59.206Z,28.53
2022-08-20T06:26:33.679Z,28.53
2022-08-20T06:29:02.573Z,28.51
2022-08-20T06:31:31.193Z,28.50
2022-08-20T06:33:59.721Z,28.48
2022-08-20T06:36:28.936Z,28.48
2022-08-20T06:38:58.420Z,28.48
2022-08-20T06:41:35.784Z,28.49
2022-08-20T06:44:07.497Z,28.49
2022-08-20T06:46:36.559Z,28.48
2022-08-20T06:49:06.217Z,28.45
2022-08-20T06:51:35.340Z,28.43
2022-08-20T06:54:05.063Z,28.41
2022-08-20T06:56:35.108Z,28.39
2022-08-20T06:59:05.017Z,28.39
2022-08-20T07:01:33.621Z,28.38
2022-08-20T07:04:02.633Z,28.39
2022-08-20T07:06:31.271Z,28.38
2022-08-20T07:08:59.745Z,28.40
2022-08-20T07:11:29.032Z,28.40
2022-08-20T07:13:58.726Z,28.40
2022-08-20T07:16:29.079Z,28.39
2022-08-20T07:18:58.296Z,28.38
2022-08-20T07:21:26.842Z,28.38
2022-08-20T07:23:55.428Z,28.39
2022-08-20T07:26:24.695Z,28.40
2022-08-20T07:28:53.328Z,28.39
2022-08-20T07:31:39.670Z,28.42
2022-08-20T07:34:13.801Z,28.42
2022-08-20T07:36:43.526Z,28.42
2022-08-20T07:39:12.043Z,28.43
2022-08-20T07:41:40.624Z,28.43
2022-08-20T07:44:09.502Z,28.42
2022-08-20T07:46:38.048Z,28.44
2022-08-20T07:49:09.980Z,28.44
2022-08-20T07:51:40.403Z,28.44
2022-08-20T07:54:08.904Z,28.42
2022-08-20T07:56:37.438Z,28.43
2022-08-20T07:59:06.377Z,28.42
2022-08-20T08:01:35.225Z,28.41
2022-08-20T08:04:04.605Z,28.41
2022-08-20T08:06:33.853Z,28.39
2022-08-20T08:09:08.245Z,28.38
2022-08-20T08:11:40.374Z,28.35
2022-08-20T08:14:11.626Z,28.34
2022-08-20T08:16:40.556Z,28.33
2022-08-20T08:19:14.387Z,28.36
2022-08-20T08:21:44.253Z,28.36
2022-08-20T08:24:19.991Z,28.39
2022-08-20T08:26:50.755Z,28.40
2022-08-20T08:29:19.429Z,28.42
2022-08-20T08:31:48.300Z,28.42
2022-08-20T08:34:17.443Z,28.44
2022-08-20T08:36:50.996Z,28.47
2022-08-20T08:39:22.195Z,28.45
2022-08-20T08:41:53.253Z,28.42
2022-08-20T08:44:27.110Z,28.43
2022-08-20T08:47:00.076Z,28.43
2022-08-20T08:49:38.033Z,28.43
2022-08-20T08:52:14.630Z,28.44
2022-08-20T08:54:49.279Z,28.44
2022-08-20T08:57:18.696Z,28.46
2022-08-20T09:00:04.820Z,28.50
2022-08-20T09:02:38.915Z,28.52
2022-08-20T09:05:18.325Z,28.56
2022-08-20T09:07:51.426Z,28.61
2022-08-20T09:10:24.918Z,28.66
2022-08-20T09:12:56.811Z,28.71
2022-08-20T09:15:32.193Z,28.76
2022-08-20T09:18:01.273Z,28.79
2022-08-20T09:20:32.675Z,28.82
2022-08-20T09:23:01.407Z,28.82
2022-08-20T09:25:31.655Z,28.81
2022-08-20T09:28:00.213Z,28.78
2022-08-20T09:30:28.845Z,28.75
2022-08-20T09:33:00.505Z,28.73
2022-08-20T09:35:29.885Z,28.71
2022-08-20T09:37:58.674Z,28.68
2022-08-20T09:40:28.013Z,28.67
2022-08-20T09:42:58.165Z,28.68
2022-08-20T09:45:27.096Z,28.67
2022-08-20T09:47:57.224Z,28.68
2022-08-20T09:50:26.828Z,28.68
2022-08-20T09:52:58.853Z,28.72
2022-08-20T09:55:34.483Z,28.74
2022-08-20T09:58:08.796Z,28.76
2022-08-20T10:00:37.465Z,28.77
2022-08-20T10:03:06.035Z,28.81
2022-08-20T10:05:34.690Z,28.83
2022-08-20T10:08:07.095Z,28.89
2022-08-20T10:10:36.128Z,28.91
2022-08-20T10:13:06.607Z,28.92
2022-08-20T10:15:36.914Z,28.89
2022-08-20T10:18:07.941Z,28.88
2022-08-20T10:20:37.261Z,28.88
2022-08-20T10:23:06.350Z,28.84
2022-08-20T10:25:35.044Z,28.88
2022-08-20T10:28:05.748Z,28.89
2022-08-20T10:30:34.569Z,28.92
2022-08-20T10:33:03.290Z,28.94
2022-08-20T10:35:32.120Z,28.97
2022-08-20T10:38:00.680Z,29.01
2022-08-20T10:40:29.562Z,29.04
2022-08-20T10:42:58.366Z,29.08
2022-08-20T10:45:28.405Z,29.12
2022-08-20T10:48:00.123Z,29.18
2022-08-20T10:50:30.872Z,29.22
2022-08-20T10:53:00.108Z,29.27
2022-08-20T10:55:28.703Z,29.32
2022-08-20T10:57:58.073Z,29.37
2022-08-20T11:00:28.230Z,29.41
2022-08-20T11:02:56.779Z,29.42
2022-08-20T11:05:25.553Z,29.42
2022-08-20T11:07:56.678Z,29.43
2022-08-20T11:10:28.203Z,29.43
2022-08-20T11:12:57.022Z,29.43
2022-08-20T11:15:27.242Z,29.45
2022-08-20T11:17:56.485Z,29.48
2022-08-20T11:20:26.485Z,29.52
2022-08-20T11:22:55.702Z,29.54
2022-08-20T11:25:24.300Z,29.57
2022-08-20T11:27:54.670Z,29.62
2022-08-20T11:30:28.272Z,29.64
2022-08-20T11:32:57.830Z,29.67
2022-08-20T11:35:48.676Z,29.67
2022-08-20T11:38:15.998Z,29.65
2022-08-20T11:40:46.611Z,29.65
2022-08-20T11:43:16.679Z,29.67
2022-08-20T11:45:50.943Z,29.70
2022-08-20T11:48:20.363Z,29.72
2022-08-20T11:50:50.188Z,29.74
2022-08-20T11:53:18.872Z,29.78
2022-08-20T11:55:48.450Z,29.83
2022-08-20T11:58:17.465Z,29.85
2022-08-20T12:00:47.660Z,29.87
2022-08-20T12:03:16.575Z,29.89
2022-08-20T12:05:47.760Z,29.91
2022-08-20T12:08:26.759Z,29.92
2022-08-20T12:10:58.534Z,29.93
2022-08-20T12:13:30.550Z,29.96
2022-08-20T12:16:02.912Z,29.99
2022-08-20T12:18:31.879Z,30.02
2022-08-20T12:21:00.777Z,30.04
2022-08-20T12:23:29.492Z,30.08
2022-08-20T12:26:02.744Z,30.10
2022-08-20T12:28:31.419Z,30.12
2022-08-20T12:31:01.606Z,30.12
2022-08-20T12:33:30.374Z,30.16
2022-08-20T12:35:59.327Z,30.22
2022-08-20T12:38:28.385Z,30.26
2022-08-20T12:40:56.907Z,30.29
2022-08-20T12:43:25.663Z,30.32
2022-08-20T12:45:54.261Z,30.33
2022-08-20T12:48:24.186Z,30.36
2022-08-20T12:50:52.874Z,30.40
2022-08-20T12:53:21.519Z,30.44
2022-08-20T12:55:50.081Z,30.45
2022-08-20T12:58:19.289Z,30.45
2022-08-20T13:00:50.874Z,30.44
2022-08-20T13:03:21.374Z,30.47
2022-08-20T13:05:51.767Z,30.53
2022-08-20T13:08:20.370Z,30.57
2022-08-20T13:10:49.465Z,30.64
2022-08-20T13:13:20.892Z,30.70
2022-08-20T13:15:51.359Z,30.74
2022-08-20T13:18:20.711Z,30.76
2022-08-20T13:20:51.047Z,30.80
2022-08-20T13:23:19.628Z,30.83
2022-08-20T13:25:48.185Z,30.87
2022-08-20T13:28:16.793Z,30.89
2022-08-20T13:30:45.401Z,30.92
2022-08-20T13:33:13.978Z,30.97
2022-08-20T13:35:42.543Z,30.99
2022-08-20T13:38:13.987Z,31.01
2022-08-20T13:40:42.542Z,31.04
2022-08-20T13:43:12.117Z,31.02
2022-08-20T13:45:42.054Z,31.05
2022-08-20T13:48:14.640Z,31.07
2022-08-20T13:50:47.397Z,31.07
2022-08-20T13:53:18.271Z,31.11
2022-08-20T13:55:48.374Z,31.16
2022-08-20T13:58:17.494Z,31.21
2022-08-20T14:00:47.355Z,31.22
2022-08-20T14:03:20.075Z,31.20
2022-08-20T14:05:54.167Z,31.15
2022-08-20T14:08:25.733Z,31.13
2022-08-20T14:10:54.796Z,31.06
2022-08-20T14:13:26.644Z,30.99
2022-08-20T14:15:56.470Z,30.94
2022-08-20T14:18:25.051Z,30.89
2022-08-20T14:20:53.752Z,30.87
2022-08-20T14:23:24.007Z,30.83
2022-08-20T14:25:52.745Z,30.77
2022-08-20T14:28:23.669Z,30.75
2022-08-20T14:30:53.807Z,30.72
2022-08-20T14:33:24.223Z,30.71
2022-08-20T14:35:53.497Z,30.70
2022-08-20T14:38:23.907Z,30.70
2022-08-20T14:40:52.574Z,30.69
2022-08-20T14:43:21.202Z,30.70
2022-08-20T14:45:49.969Z,30.72
2022-08-20T14:48:18.523Z,30.75
2022-08-20T14:50:47.145Z,30.79
2022-08-20T14:53:15.700Z,30.83
2022-08-20T14:55:45.694Z,30.88
2022-08-20T14:58:17.007Z,30.94
2022-08-20T15:00:45.909Z,30.97
2022-08-20T15:03:14.565Z,31.00
2022-08-20T15:05:44.017Z,31.05
2022-08-20T15:08:13.160Z,31.09
2022-08-20T15:10:42.665Z,31.07
2022-08-20T15:13:12.878Z,31.05
2022-08-20T15:15:41.948Z,31.06
2022-08-20T15:18:10.870Z,31.07
2022-08-20T15:20:39.773Z,31.08
2022-08-20T15:23:08.539Z,31.10
2022-08-20T15:25:38.366Z,31.13
2022-08-20T15:28:09.888Z,31.09
2022-08-20T15:30:43.098Z,31.04
2022-08-20T15:33:12.485Z,31.02
2022-08-20T15:35:41.013Z,30.99
2022-08-20T15:38:10.165Z,30.97
2022-08-20T15:40:38.784Z,30.97
2022-08-20T15:43:08.060Z,30.95
2022-08-20T15:45:37.263Z,30.95
2022-08-20T15:48:14.929Z,30.92
2022-08-20T15:51:01.719Z,30.90
2022-08-20T15:53:37.766Z,30.92
2022-08-20T15:56:24.028Z,30.92
2022-08-20T15:59:03.926Z,30.91
2022-08-20T16:01:43.447Z,30.93
2022-08-20T16:04:48.061Z,30.92
2022-08-20T16:07:26.283Z,30.90
2022-08-20T16:10:05.571Z,30.89
2022-08-20T16:12:37.869Z,30.88
2022-08-20T16:15:13.011Z,30.86
2022-08-20T16:17:47.644Z,30.87
2022-08-20T16:20:24.718Z,30.85
2022-08-20T16:22:53.515Z,30.83
2022-08-20T16:25:29.196Z,30.84
2022-08-20T16:28:06.173Z,30.83
2022-08-20T16:30:41.644Z,30.82
2022-08-20T16:33:16.601Z,30.82
2022-08-20T16:35:52.780Z,30.80
2022-08-20T16:38:32.982Z,30.78
2022-08-20T16:41:10.052Z,30.78
2022-08-20T16:43:47.209Z,30.78
2022-08-20T16:46:19.985Z,30.80
2022-08-20T16:49:00.646Z,30.80
2022-08-20T16:51:39.276Z,30.80
2022-08-20T16:54:09.047Z,30.79
2022-08-20T16:56:43.685Z,30.80
2022-08-20T16:59:18.337Z,30.78
2022-08-20T17:02:07.227Z,30.78
2022-08-20T17:04:58.577Z,30.79
2022-08-20T17:07:43.437Z,30.80
2022-08-20T17:10:21.801Z,30.81
2022-08-20T17:12:56.739Z,30.81
2022-08-20T17:15:30.396Z,30.82
2022-08-20T17:17:59.159Z,30.81
2022-08-20T17:20:29.628Z,30.82
2022-08-20T17:23:16.327Z,30.82
2022-08-20T17:25:47.348Z,30.82
2022-08-20T17:28:19.180Z,30.83
2022-08-20T17:30:49.060Z,30.83
2022-08-20T17:33:28.409Z,30.82
2022-08-20T17:35:59.310Z,30.82
2022-08-20T17:38:35.498Z,30.80
2022-08-20T17:41:12.775Z,30.79
2022-08-20T17:43:46.051Z,30.77
2022-08-20T17:46:17.779Z,30.76
2022-08-20T17:48:49.133Z,30.74
2022-08-20T17:51:20.362Z,30.71
2022-08-20T17:53:56.322Z,30.69
2022-08-20T17:56:30.928Z,30.67
2022-08-20T17:59:07.180Z,30.66
2022-08-20T18:01:39.276Z,30.62
2022-08-20T18:04:08.110Z,30.62
2022-08-20T18:06:45.389Z,30.60
2022-08-20T18:09:18.876Z,30.58
2022-08-20T18:11:53.953Z,30.57
2022-08-20T18:14:38.782Z,30.54
2022-08-20T18:17:18.003Z,30.52
2022-08-20T18:20:26.408Z,30.47
2022-08-20T18:23:01.088Z,30.46
2022-08-20T18:25:36.639Z,30.46
2022-08-20T18:28:10.718Z,30.45
2022-08-20T18:30:51.499Z,30.44
2022-08-20T18:33:33.664Z,30.41
2022-08-20T18:36:14.255Z,30.40
2022-08-20T18:38:43.948Z,30.39
2022-08-20T18:41:28.663Z,30.37
2022-08-20T18:44:10.130Z,30.29
2022-08-20T18:46:39.587Z,30.25
2022-08-20T18:49:09.632Z,30.22
2022-08-20T18:51:43.053Z,30.21
2022-08-20T18:54:25.661Z,30.19
2022-08-20T18:57:07.981Z,30.17
2022-08-20T18:59:44.321Z,30.17
2022-08-20T19:02:23.554Z,30.14
2022-08-20T19:05:02.088Z,30.14
2022-08-20T19:07:47.927Z,30.12
2022-08-20T19:10:47.762Z,30.05
2022-08-20T19:13:50.366Z,30.04
2022-08-20T19:16:23.797Z,30.03
2022-08-20T19:18:54.863Z,30.01
2022-08-20T19:21:27.506Z,30.00
2022-08-20T19:24:01.414Z,29.98
2022-08-20T19:26:32.993Z,29.96
2022-08-20T19:29:11.477Z,29.94
2022-08-20T19:31:41.389Z,29.92
2022-08-20T19:34:19.875Z,29.91
2022-08-20T19:36:58.525Z,29.87
2022-08-20T19:39:28.962Z,29.85
2022-08-20T19:42:03.620Z,29.85
2022-08-20T19:44:46.594Z,29.82
2022-08-20T19:47:28.371Z,29.80
2022-08-20T19:50:07.132Z,29.77
2022-08-20T19:52:51.654Z,29.74
2022-08-20T19:55:25.667Z,29.73
2022-08-20T19:58:00.164Z,29.70
2022-08-20T20:00:39.980Z,29.68
2022-08-20T20:03:18.971Z,29.66
2022-08-20T20:05:53.365Z,29.63
2022-08-20T20:08:25.555Z,29.62
2022-08-20T20:10:58.858Z,29.59
2022-08-20T20:13:32.826Z,29.56
2022-08-20T20:16:08.745Z,29.55
2022-08-20T20:18:42.195Z,29.54
2022-08-20T20:21:16.791Z,29.53
2022-08-20T20:23:55.111Z,29.50
2022-08-20T20:26:25.487Z,29.47
2022-08-20T20:29:03.209Z,29.45
2022-08-20T20:31:40.257Z,29.43
2022-08-20T20:34:13.169Z,29.42
2022-08-20T20:36:50.265Z,29.40
2022-08-20T20:39:32.915Z,29.37
2022-08-20T20:42:08.411Z,29.37
2022-08-20T20:44:39.535Z,29.34
2022-08-20T20:47:19.651Z,29.33
2022-08-20T20:49:53.042Z,29.30
2022-08-20T20:52:28.615Z,29.27
2022-08-20T20:55:12.847Z,29.22
2022-08-20T20:57:42.191Z,29.19
2022-08-20T21:00:21.345Z,29.16
2022-08-20T21:02:51.748Z,29.14
2022-08-20T21:05:22.848Z,29.12
2022-08-20T21:07:57.005Z,29.12
2022-08-20T21:10:30.215Z,29.09
2022-08-20T21:13:01.068Z,29.07
2022-08-20T21:15:29.915Z,29.04
2022-08-20T21:18:02.814Z,29.03
2022-08-20T21:20:31.752Z,29.02
2022-08-20T21:23:00.561Z,29.01
2022-08-20T21:25:33.484Z,29.01
2022-08-20T21:28:02.781Z,28.98
2022-08-20T21:30:31.933Z,28.97
2022-08-20T21:33:02.213Z,28.93
2022-08-20T21:35:31.879Z,28.93
2022-08-20T21:38:00.525Z,28.92
2022-08-20T21:40:29.092Z,28.89
2022-08-20T21:42:57.934Z,28.87
2022-08-20T21:45:28.455Z,28.84
2022-08-20T21:47:58.301Z,28.82
2022-08-20T21:50:28.952Z,28.81
2022-08-20T21:52:59.767Z,28.80
2022-08-20T21:55:41.708Z,28.77
2022-08-20T21:58:10.504Z,28.75
2022-08-20T22:00:56.813Z,28.74
2022-08-20T22:03:29.106Z,28.73
2022-08-20T22:06:03.522Z,28.71
2022-08-20T22:08:32.710Z,28.69
2022-08-20T22:11:02.994Z,28.68
2022-08-20T22:13:33.753Z,28.67
2022-08-20T22:16:05.384Z,28.64
2022-08-20T22:18:35.028Z,28.62
2022-08-20T22:21:09.760Z,28.61
2022-08-20T22:23:40.335Z,28.59
2022-08-20T22:26:09.726Z,28.57
2022-08-20T22:28:39.013Z,28.56
2022-08-20T22:31:08.545Z,28.56
2022-08-20T22:33:39.925Z,28.55
2022-08-20T22:36:11.582Z,28.54
2022-08-20T22:38:40.277Z,28.50
2022-08-20T22:41:10.020Z,28.50
2022-08-20T22:43:46.277Z,28.48
2022-08-20T22:46:28.061Z,28.45
2022-08-20T22:48:57.241Z,28.44
2022-08-20T22:51:32.280Z,28.44
2022-08-20T22:54:06.288Z,28.40
2022-08-20T22:56:35.262Z,28.38
2022-08-20T22:59:05.219Z,28.38
2022-08-20T23:01:34.230Z,28.37
2022-08-20T23:04:08.942Z,28.35
2022-08-20T23:06:39.029Z,28.34
2022-08-20T23:09:07.886Z,28.31
2022-08-20T23:11:41.958Z,28.29
2022-08-20T23:14:10.878Z,28.27
2022-08-20T23:16:45.167Z,28.27
2022-08-20T23:19:21.542Z,28.25
2022-08-20T23:21:52.863Z,28.22
2022-08-20T23:24:21.760Z,28.20
2022-08-20T23:26:53.172Z,28.19
2022-08-20T23:29:25.404Z,28.19
2022-08-20T23:31:55.133Z,28.16
2022-08-20T23:34:24.000Z,28.15
2022-08-20T23:36:55.596Z,28.14
2022-08-20T23:39:24.453Z,28.11
2022-08-20T23:41:53.877Z,28.09
2022-08-20T23:44:26.630Z,28.08
2022-08-20T23:46:57.737Z,28.06
2022-08-20T23:49:26.760Z,28.05
2022-08-20T23:51:57.784Z,28.04
2022-08-20T23:54:26.316Z,28.03
2022-08-20T23:56:57.086Z,28.01
2022-08-20T23:59:26.255Z,28.00
